Time;durP1;ratioP1;P1;durP2;ratioP2;P2;SDS_P1;SDS_P2;PMS_P1;PMS_P2;Temp;Humidity;BMP_temperature;BMP_pressure;BME280_temperature;BME280_humidity;BME280_pressure;Samples;Min_cycle;Max_cycle;Signal;HPM_P1;HPM_P2
2023/08/17 00:00:18;;;;;;;6.47;3.70;;;;;;;22.05;100.00;98308.81;4152316;28;20626;-75
2023/08/17 00:02:22;;;;;;;5.03;4.33;;;;;;;22.05;100.00;98307.97;4172858;28;20719;-75
2023/08/17 00:04:25;;;;;;;4.20;3.80;;;;;;;22.05;100.00;98315.97;4170032;28;21331;-76
2023/08/17 00:06:28;;;;;;;4.13;3.10;;;;;;;22.05;100.00;98315.97;4176624;28;20626;-75
2023/08/17 00:08:31;;;;;;;4.60;3.90;;;;;;;22.04;100.00;98322.25;4173094;28;20632;-75
2023/08/17 00:10:35;;;;;;;3.90;3.23;;;;;;;22.02;100.00;98322.44;4169157;28;20637;-75
2023/08/17 00:12:39;;;;;;;3.97;3.57;;;;;;;22.02;100.00;98327.75;4173180;28;20638;-75
2023/08/17 00:14:41;;;;;;;4.80;3.93;;;;;;;22.00;100.00;98324.44;4160681;28;21097;-75
2023/08/17 00:16:44;;;;;;;4.43;3.20;;;;;;;22.00;100.00;98323.63;4174247;28;20668;-75
2023/08/17 00:18:49;;;;;;;7.53;3.80;;;;;;;21.98;100.00;98312.31;4166782;28;20679;-75
2023/08/17 00:20:52;;;;;;;6.23;4.27;;;;;;;21.95;100.00;98307.34;4176273;28;20730;-76
2023/08/17 00:22:55;;;;;;;5.17;3.77;;;;;;;21.92;100.00;98312.97;4157847;28;20633;-75
2023/08/17 00:24:58;;;;;;;5.43;3.90;;;;;;;21.90;100.00;98317.66;4172715;28;20636;-75
2023/08/17 00:27:00;;;;;;;5.30;3.80;;;;;;;21.88;100.00;98314.34;4172043;28;21402;-77
2023/08/17 00:29:05;;;;;;;4.43;4.03;;;;;;;21.88;100.00;98311.69;4154767;28;20633;-76
2023/08/17 00:31:09;;;;;;;4.13;3.70;;;;;;;21.87;100.00;98317.97;4175182;28;20648;-74
2023/08/17 00:33:12;;;;;;;5.27;4.23;;;;;;;21.81;100.00;98303.56;4160855;28;20738;-75
2023/08/17 00:35:16;;;;;;;6.80;4.27;;;;;;;21.77;100.00;98302.25;4174792;28;20705;-75
2023/08/17 00:37:19;;;;;;;4.57;3.80;;;;;;;21.77;100.00;98309.38;4171239;28;20635;-75
2023/08/17 00:39:22;;;;;;;5.30;4.33;;;;;;;21.75;100.00;98310.53;4167106;28;20693;-76
2023/08/17 00:41:25;;;;;;;6.13;4.00;;;;;;;21.72;100.00;98303.72;4168827;28;21011;-75
2023/08/17 00:43:29;;;;;;;4.27;3.60;;;;;;;21.70;100.00;98303.06;4173849;28;20634;-75
2023/08/17 00:45:33;;;;;;;4.17;3.73;;;;;;;21.68;100.00;98302.44;4176044;28;20615;-75
2023/08/17 00:47:37;;;;;;;3.70;3.30;;;;;;;21.66;100.00;98301.75;4160977;28;20716;-75
2023/08/17 00:49:40;;;;;;;4.80;3.70;;;;;;;21.64;100.00;98298.44;4171279;28;20626;-77
2023/08/17 00:51:43;;;;;;;3.80;3.33;;;;;;;21.63;100.00;98301.25;4158242;28;20636;-75
2023/08/17 00:53:47;;;;;;;5.30;3.90;;;;;;;21.62;100.00;98304.91;4171280;28;20632;-75
2023/08/17 00:55:51;;;;;;;5.60;3.47;;;;;;;21.60;100.00;98312.22;4173405;28;20667;-76
2023/08/17 00:57:57;;;;;;;4.50;3.47;;;;;;;21.59;100.00;98308.75;4173025;28;20636;-75
2023/08/17 01:00:00;;;;;;;4.67;3.93;;;;;;;21.59;100.00;98316.72;4153759;28;20627;-76
2023/08/17 01:02:09;;;;;;;5.80;3.70;;;;;;;21.58;100.00;98315.03;4168307;28;20607;-75
2023/08/17 01:04:13;;;;;;;3.73;3.43;;;;;;;21.58;100.00;98316.88;4174298;28;20668;-76
2023/08/17 01:06:16;;;;;;;4.60;3.83;;;;;;;21.56;100.00;98316.19;4156794;28;21223;-75
2023/08/17 01:08:19;;;;;;;5.47;3.20;;;;;;;21.56;100.00;98317.03;4169975;28;20776;-75
2023/08/17 01:10:22;;;;;;;4.87;4.13;;;;;;;21.56;100.00;98302.91;4173674;28;20682;-75
2023/08/17 01:12:29;;;;;;;5.70;4.00;;;;;;;21.57;100.00;98313.38;4171922;28;20644;-74
2023/08/17 01:14:40;;;;;;;4.60;3.60;;;;;;;21.55;100.00;98298.63;4165591;28;21040;-75
2023/08/17 01:16:47;;;;;;;9.10;3.93;;;;;;;21.53;100.00;98312.06;4160307;28;20696;-75
2023/08/17 01:18:52;;;;;;;4.90;3.80;;;;;;;21.50;100.00;98300.94;4170397;28;21019;-75
2023/08/17 01:20:54;;;;;;;4.60;4.10;;;;;;;21.46;100.00;98294.31;4169061;28;20982;-75
2023/08/17 01:23:05;;;;;;;4.50;4.10;;;;;;;21.43;100.00;98295.44;4171350;28;21237;-76
2023/08/17 01:25:09;;;;;;;4.77;3.93;;;;;;;21.41;100.00;98292.13;4185059;28;21485;-75
2023/08/17 01:27:12;;;;;;;3.93;3.50;;;;;;;21.40;100.00;98290.44;4172996;28;20665;-75
2023/08/17 01:29:16;;;;;;;5.30;4.07;;;;;;;21.41;100.00;98288.66;4172203;28;20643;-76
2023/08/17 01:31:22;;;;;;;4.90;3.93;;;;;;;21.37;100.00;98288.13;4167524;28;21123;-76
2023/08/17 01:33:29;;;;;;;4.63;3.80;;;;;;;21.34;100.00;98287.66;4179039;28;20628;-77
2023/08/17 01:35:35;;;;;;;4.93;3.50;;;;;;;21.30;100.00;98268.56;4147379;28;20632;-75
2023/08/17 01:37:40;;;;;;;4.90;3.77;;;;;;;21.30;100.00;98267.72;4173907;28;20684;-75
2023/08/17 01:39:45;;;;;;;4.30;3.90;;;;;;;21.31;100.00;98272.06;4174040;28;21196;-74
2023/08/17 01:41:49;;;;;;;4.83;3.17;;;;;;;21.30;100.00;98270.38;4177191;28;20633;-76
2023/08/17 01:43:52;;;;;;;4.23;3.60;;;;;;;21.30;100.00;98268.56;4156315;28;20627;-77
2023/08/17 01:45:55;;;;;;;4.30;3.90;;;;;;;21.32;100.00;98268.41;4169034;28;20670;-74
2023/08/17 01:47:58;;;;;;;5.20;3.93;;;;;;;21.30;100.00;98273.88;4173851;28;20725;-74
2023/08/17 01:50:01;;;;;;;5.27;3.73;;;;;;;21.28;100.00;98265.25;4171771;28;20635;-74
2023/08/17 01:52:05;;;;;;;5.00;3.90;;;;;;;21.26;100.00;98274.38;4172965;28;20646;-82
2023/08/17 01:54:08;;;;;;;6.87;3.87;;;;;;;21.26;100.00;98284.16;4171613;28;20635;-82
2023/08/17 01:56:13;;;;;;;4.10;3.70;;;;;;;21.21;100.00;98278.53;4157858;28;20724;-81
2023/08/17 01:58:16;;;;;;;5.70;4.20;;;;;;;21.17;100.00;98288.63;4156513;28;20650;-80
2023/08/17 02:00:20;;;;;;;3.90;3.50;;;;;;;21.16;100.00;98280.84;4171263;28;20671;-81
2023/08/17 02:02:23;;;;;;;3.93;3.30;;;;;;;21.15;100.00;98277.34;4173113;28;20678;-82
2023/08/17 02:04:26;;;;;;;3.70;3.40;;;;;;;21.13;100.00;98279.34;4162766;28;21487;-83
2023/08/17 02:06:29;;;;;;;7.87;4.20;;;;;;;21.10;100.00;98276.19;4178862;28;20623;-83
2023/08/17 02:08:34;;;;;;;7.23;4.43;;;;;;;21.09;100.00;98274.53;4171210;28;20639;-81
2023/08/17 02:10:37;;;;;;;4.07;3.67;;;;;;;21.08;100.00;98265.75;4179474;28;20627;-83
2023/08/17 02:12:42;;;;;;;5.13;3.93;;;;;;;21.07;100.00;98272.03;4177012;28;20662;-82
2023/08/17 02:14:45;;;;;;;8.00;4.97;;;;;;;21.06;100.00;98264.25;4163622;28;21194;-82
2023/08/17 02:16:48;;;;;;;13.07;5.00;;;;;;;21.06;100.00;98266.91;4170718;28;20659;-82
2023/08/17 02:18:52;;;;;;;10.83;4.47;;;;;;;21.08;100.00;98267.56;4172697;28;20681;-79
2023/08/17 02:20:55;;;;;;;6.87;5.00;;;;;;;21.10;100.00;98270.91;4178095;28;20653;-82
2023/08/17 02:22:58;;;;;;;5.53;4.30;;;;;;;21.12;100.00;98263.59;4163544;28;20728;-82
2023/08/17 02:25:01;;;;;;;6.10;4.90;;;;;;;21.11;100.00;98262.75;4173277;28;20622;-82
2023/08/17 02:27:04;;;;;;;6.07;4.67;;;;;;;21.12;100.00;98268.91;4153227;28;20657;-82
2023/08/17 02:29:08;;;;;;;7.40;5.07;;;;;;;21.12;100.00;98271.53;4161231;28;20675;-83
2023/08/17 02:31:12;;;;;;;6.10;4.47;;;;;;;21.13;100.00;98262.59;4183526;28;20668;-83
2023/08/17 02:33:15;;;;;;;5.97;4.60;;;;;;;21.12;100.00;98263.59;4161382;28;21282;-82
2023/08/17 02:35:19;;;;;;;5.10;4.40;;;;;;;21.11;100.00;98265.41;4173713;28;21205;-82
2023/08/17 02:37:22;;;;;;;6.43;4.20;;;;;;;21.09;100.00;98259.44;4175228;28;21217;-82
2023/08/17 02:39:25;;;;;;;8.83;3.97;;;;;;;21.08;100.00;98260.44;4175172;28;20618;-82
2023/08/17 02:41:30;;;;;;;7.63;3.97;;;;;;;21.07;100.00;98260.59;4177198;28;20672;-82
2023/08/17 02:43:32;;;;;;;6.53;4.03;;;;;;;21.07;100.00;98255.31;4175395;28;21036;-83
2023/08/17 02:45:36;;;;;;;5.30;3.80;;;;;;;21.04;100.00;98255.63;4173796;28;20642;-82
2023/08/17 02:47:40;;;;;;;4.30;3.63;;;;;;;20.98;100.00;98262.41;4154569;28;20670;-82
2023/08/17 02:49:43;;;;;;;5.73;4.47;;;;;;;20.95;100.00;98256.63;4174825;28;20718;-82
2023/08/17 02:51:46;;;;;;;7.73;4.10;;;;;;;20.94;100.00;98254.94;4175238;28;21010;-82
2023/08/17 02:53:49;;;;;;;5.87;4.10;;;;;;;20.93;100.00;98259.44;4162082;28;20640;-81
2023/08/17 02:55:52;;;;;;;9.50;4.00;;;;;;;20.92;100.00;98252.47;4172622;28;20639;-80
2023/08/17 02:57:55;;;;;;;7.60;4.33;;;;;;;20.89;100.00;98250.13;4173412;28;20653;-82
2023/08/17 02:59:58;;;;;;;4.63;4.20;;;;;;;20.87;100.00;98252.13;4157488;28;21206;-82
2023/08/17 03:02:03;;;;;;;4.80;3.93;;;;;;;20.85;100.00;98251.47;4178984;28;21394;-74
2023/08/17 03:04:06;;;;;;;4.20;3.80;;;;;;;20.84;100.00;98243.69;4173549;28;20691;-73
2023/08/17 03:06:10;;;;;;;4.50;3.60;;;;;;;20.83;100.00;98247.31;4172488;28;20658;-74
2023/08/17 03:08:15;;;;;;;6.17;4.53;;;;;;;20.82;100.00;98245.66;4147678;28;20672;-75
2023/08/17 03:10:17;;;;;;;4.60;3.63;;;;;;;20.82;100.00;98245.66;4156872;28;20676;-75
2023/08/17 03:12:21;;;;;;;3.73;3.33;;;;;;;20.81;100.00;98242.19;4176223;28;20720;-75
2023/08/17 03:14:24;;;;;;;7.00;4.10;;;;;;;20.81;100.00;98244.00;4171732;28;20631;-74
2023/08/17 03:16:29;;;;;;;5.00;4.23;;;;;;;20.80;100.00;98243.16;4172330;28;20686;-75
2023/08/17 03:18:35;;;;;;;5.07;4.40;;;;;;;20.80;100.00;98248.47;4176396;28;21105;-74
2023/08/17 03:20:38;;;;;;;6.83;5.00;;;;;;;20.81;100.00;98239.53;4172684;28;20726;-73
2023/08/17 03:22:41;;;;;;;5.13;3.93;;;;;;;20.80;100.00;98231.72;4173426;28;20681;-75
2023/08/17 03:24:44;;;;;;;5.13;4.20;;;;;;;20.81;100.00;98238.72;4168640;28;20639;-74
2023/08/17 03:26:47;;;;;;;6.50;4.53;;;;;;;20.83;100.00;98247.31;4176933;28;20618;-74
2023/08/17 03:28:50;;;;;;;5.40;4.43;;;;;;;20.81;100.00;98234.22;4171031;28;20682;-74
2023/08/17 03:30:56;;;;;;;4.30;3.90;;;;;;;20.84;100.00;98235.72;4173036;28;20709;-76
2023/08/17 03:32:59;;;;;;;8.43;4.80;;;;;;;20.85;100.00;98229.41;4160375;28;22387;-74
2023/08/17 03:35:04;;;;;;;4.40;4.00;;;;;;;20.88;100.00;98229.94;4172035;28;20658;-74
2023/08/17 03:37:07;;;;;;;4.20;3.50;;;;;;;20.90;100.00;98235.88;4175321;28;20869;-73
2023/08/17 03:39:10;;;;;;;4.13;3.47;;;;;;;20.93;100.00;98234.75;4159807;28;20623;-74
2023/08/17 03:41:14;;;;;;;4.43;4.03;;;;;;;20.93;100.00;98232.91;4160294;28;21168;-75
2023/08/17 03:43:18;;;;;;;4.10;3.70;;;;;;;20.94;100.00;98225.78;4172952;28;20648;-74
2023/08/17 03:45:22;;;;;;;4.60;3.97;;;;;;;20.94;100.00;98223.13;4167605;28;20694;-76
2023/08/17 03:47:27;;;;;;;4.73;3.90;;;;;;;20.94;100.00;98229.28;4156468;28;20620;-74
2023/08/17 03:49:30;;;;;;;4.47;3.83;;;;;;;20.97;100.00;98228.09;4169039;28;21289;-74
2023/08/17 03:51:35;;;;;;;4.30;3.90;;;;;;;20.99;100.00;98236.75;4171792;28;20623;-74
2023/08/17 03:53:38;;;;;;;3.77;3.37;;;;;;;21.01;100.00;98240.88;4170257;28;21194;-74
2023/08/17 03:55:46;;;;;;;5.93;3.90;;;;;;;21.05;100.00;98251.97;4173832;28;20630;-74
2023/08/17 03:57:49;;;;;;;5.70;3.90;;;;;;;21.06;100.00;98256.28;4158551;28;20652;-74
2023/08/17 03:59:53;;;;;;;4.93;4.37;;;;;;;21.08;100.00;98256.94;4156752;28;20638;-74
2023/08/17 04:01:56;;;;;;;5.27;3.97;;;;;;;21.10;100.00;98260.28;4166844;28;20716;-74
2023/08/17 04:03:59;;;;;;;5.70;4.47;;;;;;;21.12;100.00;98261.75;4151413;28;20762;-74
2023/08/17 04:06:06;;;;;;;4.93;4.20;;;;;;;21.12;100.00;98259.09;4169027;28;20625;-76
2023/08/17 04:08:10;;;;;;;4.80;4.33;;;;;;;21.13;100.00;98265.25;4166288;28;20636;-74
2023/08/17 04:10:14;;;;;;;5.67;4.97;;;;;;;21.13;100.00;98259.94;4168731;28;20992;-74
2023/08/17 04:12:17;;;;;;;5.17;4.30;;;;;;;21.13;100.00;98257.28;4153060;28;20727;-74
2023/08/17 04:14:20;;;;;;;5.70;4.37;;;;;;;21.14;100.00;98272.19;4186056;28;20633;-74
2023/08/17 04:16:23;;;;;;;5.27;4.33;;;;;;;21.14;100.00;98270.41;4177970;28;21026;-75
2023/08/17 04:18:27;;;;;;;5.20;4.70;;;;;;;21.14;100.00;98275.69;4171957;28;20661;-76
2023/08/17 04:20:30;;;;;;;7.07;4.93;;;;;;;21.11;100.00;98264.56;4160794;28;20724;-74
2023/08/17 04:22:33;;;;;;;7.60;4.63;;;;;;;21.11;100.00;98265.41;4166407;28;20778;-74
2023/08/17 04:24:38;;;;;;;7.50;5.43;;;;;;;21.10;100.00;98274.38;4168104;28;20749;-74
2023/08/17 04:26:41;;;;;;;8.50;5.40;;;;;;;21.12;100.00;98274.19;4169920;28;21111;-77
2023/08/17 04:28:44;;;;;;;8.33;5.93;;;;;;;21.12;100.00;98275.03;4170356;28;20608;-73
2023/08/17 04:30:47;;;;;;;10.33;7.03;;;;;;;21.13;100.00;98278.53;4158419;28;20735;-74
2023/08/17 04:32:52;;;;;;;11.00;7.90;;;;;;;21.16;100.00;98291.47;4161507;28;21196;-74
2023/08/17 04:34:56;;;;;;;11.87;7.67;;;;;;;21.18;100.00;98286.81;4175581;28;20635;-74
2023/08/17 04:36:58;;;;;;;13.03;8.73;;;;;;;21.19;100.00;98288.47;4171821;28;20652;-73
2023/08/17 04:39:01;;;;;;;12.27;7.30;;;;;;;21.19;100.00;98283.16;4168483;28;20690;-74
2023/08/17 04:41:06;;;;;;;10.63;6.90;;;;;;;21.20;100.00;98293.63;4172085;28;21005;-74
2023/08/17 04:43:11;;;;;;;10.70;7.23;;;;;;;21.20;100.00;98293.63;4173919;28;20658;-74
2023/08/17 04:45:14;;;;;;;13.43;7.33;;;;;;;21.22;100.00;98304.06;4166457;28;21048;-74
2023/08/17 04:47:20;;;;;;;15.50;6.83;;;;;;;21.22;100.00;98296.09;4151987;28;20633;-74
2023/08/17 04:49:23;;;;;;;9.33;6.40;;;;;;;21.23;100.00;98305.72;4166451;28;20627;-74
2023/08/17 04:51:26;;;;;;;10.33;6.90;;;;;;;21.26;100.00;98305.38;4176311;28;20628;-74
2023/08/17 04:53:29;;;;;;;10.90;7.53;;;;;;;21.27;100.00;98300.75;4172323;28;21529;-74
2023/08/17 04:55:32;;;;;;;15.97;9.90;;;;;;;21.28;100.00;98307.69;4158442;28;20632;-74
2023/08/17 04:57:37;;;;;;;15.90;10.77;;;;;;;21.27;100.00;98300.75;4168940;28;20734;-74
2023/08/17 04:59:43;;;;;;;16.63;10.30;;;;;;;21.28;100.00;98302.41;4180915;28;20698;-74
2023/08/17 05:01:46;;;;;;;14.73;10.50;;;;;;;21.31;100.00;98307.38;4153955;28;20636;-75
2023/08/17 05:03:49;;;;;;;14.77;10.27;;;;;;;21.33;100.00;98308.06;4170979;28;20678;-74
2023/08/17 05:05:53;;;;;;;18.40;11.27;;;;;;;21.37;100.00;98303.25;4173734;28;20647;-75
2023/08/17 05:07:56;;;;;;;15.60;11.03;;;;;;;21.40;100.00;98311.69;4171683;28;20655;-74
2023/08/17 05:09:59;;;;;;;14.97;10.47;;;;;;;21.40;100.00;98301.06;4155957;28;20718;-74
2023/08/17 05:12:02;;;;;;;12.80;9.07;;;;;;;21.42;100.00;98308.88;4154958;28;20688;-74
2023/08/17 05:14:07;;;;;;;13.30;9.07;;;;;;;21.43;100.00;98305.22;4174224;28;20692;-74
2023/08/17 05:16:11;;;;;;;9.43;7.20;;;;;;;21.43;100.00;98300.75;4157615;28;20637;-75
2023/08/17 05:18:14;;;;;;;10.07;6.60;;;;;;;21.45;100.00;98295.25;4167682;28;21003;-74
2023/08/17 05:20:19;;;;;;;10.00;6.93;;;;;;;21.46;100.00;98296.97;4157394;28;20631;-75
2023/08/17 05:22:22;;;;;;;9.90;7.37;;;;;;;21.48;100.00;98295.78;4173069;28;20649;-83
2023/08/17 05:24:26;;;;;;;7.83;6.00;;;;;;;21.49;100.00;98294.78;4157753;28;20630;-82
2023/08/17 05:26:29;;;;;;;9.80;7.10;;;;;;;21.51;100.00;98298.09;4164782;28;20658;-82
2023/08/17 05:28:32;;;;;;;11.60;7.40;;;;;;;21.53;100.00;98295.28;4176852;28;20629;-83
2023/08/17 05:30:38;;;;;;;10.90;8.00;;;;;;;21.55;100.00;98298.63;4166662;28;20646;-83
2023/08/17 05:32:42;;;;;;;11.90;8.50;;;;;;;21.57;100.00;98297.44;4174673;28;20655;-82
2023/08/17 05:34:45;;;;;;;11.70;8.60;;;;;;;21.59;100.00;98299.94;4176297;28;20630;-82
2023/08/17 05:36:48;;;;;;;12.47;9.87;;;;;;;21.61;100.00;98301.44;4172527;28;20669;-82
2023/08/17 05:38:52;;;;;;;12.20;9.00;;;;;;;21.65;100.00;98313.38;4176913;28;21136;-82
2023/08/17 05:40:58;;;;;;;12.27;9.30;;;;;;;21.70;100.00;98318.19;4160790;28;20709;-83
2023/08/17 05:43:01;;;;;;;13.40;9.73;;;;;;;21.70;100.00;98321.66;4167327;28;21003;-83
2023/08/17 05:45:05;;;;;;;12.63;9.43;;;;;;;21.70;100.00;98320.84;4167855;28;20627;-83
2023/08/17 05:47:12;;;;;;;11.10;9.00;;;;;;;21.68;100.00;98314.84;4173159;28;20723;-83
2023/08/17 05:49:15;;;;;;;16.10;10.30;;;;;;;21.66;100.00;98312.38;4175974;28;20613;-82
2023/08/17 05:51:19;;;;;;;13.10;9.83;;;;;;;21.69;100.00;98309.38;4170609;28;20710;-82
2023/08/17 05:53:22;;;;;;;13.43;9.67;;;;;;;21.66;100.00;98304.41;4174441;28;20627;-81
2023/08/17 05:55:25;;;;;;;13.00;9.60;;;;;;;21.61;100.00;98303.25;4174165;28;20659;-83
2023/08/17 05:57:28;;;;;;;12.07;9.23;;;;;;;21.63;100.00;98307.38;4167552;28;21077;-82
2023/08/17 05:59:31;;;;;;;12.20;9.03;;;;;;;21.64;100.00;98306.41;4168008;28;21342;-83
2023/08/17 06:01:35;;;;;;;10.33;8.13;;;;;;;21.66;100.00;98315.03;4166179;28;20626;-82
2023/08/17 06:03:40;;;;;;;12.53;9.43;;;;;;;21.69;100.00;98314.69;4170920;28;21227;-83
2023/08/17 06:05:43;;;;;;;13.10;9.80;;;;;;;21.72;100.00;98311.69;4167956;28;20662;-82
2023/08/17 06:07:46;;;;;;;13.13;10.13;;;;;;;21.75;100.00;98316.66;4160027;28;20701;-82
2023/08/17 06:09:50;;;;;;;12.90;9.10;;;;;;;21.77;100.00;98320.84;4164668;28;20661;-79
2023/08/17 06:11:55;;;;;;;11.40;8.77;;;;;;;21.77;100.00;98315.53;4172359;28;20634;-82
2023/08/17 06:13:58;;;;;;;11.93;9.80;;;;;;;21.81;100.00;98318.66;4167262;28;20632;-81
2023/08/17 06:16:01;;;;;;;11.17;8.37;;;;;;;21.83;100.00;98317.50;4174808;28;20648;-82
2023/08/17 06:18:05;;;;;;;11.17;8.60;;;;;;;21.87;100.00;98317.97;4169754;28;21260;-81
2023/08/17 06:20:13;;;;;;;11.93;8.93;;;;;;;21.90;100.00;98326.44;4172734;28;21284;-82
2023/08/17 06:22:16;;;;;;;12.80;9.63;;;;;;;21.93;100.00;98326.09;4167960;28;20689;-81
2023/08/17 06:24:20;;;;;;;14.37;10.57;;;;;;;21.97;100.00;98326.63;4172988;28;21072;-82
2023/08/17 06:26:23;;;;;;;11.90;8.90;;;;;;;21.98;100.00;98328.25;4175431;28;20620;-80
2023/08/17 06:28:27;;;;;;;11.90;9.47;;;;;;;21.99;100.00;98330.75;4171795;28;21208;-83
2023/08/17 06:30:30;;;;;;;13.30;10.20;;;;;;;21.97;100.00;98332.75;4170631;28;20644;-82
2023/08/17 06:32:33;;;;;;;13.60;9.43;;;;;;;22.02;100.00;98337.56;4169280;28;20647;-83
2023/08/17 06:34:36;;;;;;;11.27;9.03;;;;;;;22.04;100.00;98336.41;4174962;28;20661;-83
2023/08/17 06:36:41;;;;;;;14.70;9.30;;;;;;;22.08;100.00;98331.56;4172931;28;20625;-82
2023/08/17 06:38:45;;;;;;;13.80;9.90;;;;;;;22.11;100.00;98340.00;4170944;28;20615;-83
2023/08/17 06:40:48;;;;;;;12.53;10.23;;;;;;;22.13;100.00;98331.88;4162002;28;20664;-82
2023/08/17 06:42:52;;;;;;;13.50;9.50;;;;;;;22.16;100.00;98339.50;4171684;28;20657;-82
2023/08/17 06:44:55;;;;;;;12.30;9.63;;;;;;;22.16;100.00;98326.22;4172880;28;20671;-82
2023/08/17 06:46:58;;;;;;;11.60;9.13;;;;;;;22.17;100.00;98325.22;4178438;28;20730;-82
2023/08/17 06:49:02;;;;;;;12.83;10.30;;;;;;;22.20;100.00;98332.88;4171214;28;20654;-83
2023/08/17 06:51:06;;;;;;;14.40;10.30;;;;;;;22.21;100.00;98322.09;4168744;28;20661;-83
2023/08/17 06:53:10;;;;;;;12.97;10.30;;;;;;;22.25;100.00;98326.03;4169833;28;21109;-83
2023/08/17 06:55:14;;;;;;;12.20;9.50;;;;;;;22.25;100.00;98332.22;4169192;28;20653;-82
2023/08/17 06:57:18;;;;;;;13.77;9.97;;;;;;;22.25;100.00;98342.84;4170344;28;20665;-83
2023/08/17 06:59:22;;;;;;;12.33;9.03;;;;;;;22.27;100.00;98342.69;4170900;28;20723;-82
2023/08/17 07:01:25;;;;;;;12.70;9.60;;;;;;;22.27;100.00;98335.53;4168296;28;20721;-83
2023/08/17 07:03:28;;;;;;;11.63;9.20;;;;;;;22.27;100.00;98332.88;4171158;28;20701;-82
2023/08/17 07:05:32;;;;;;;12.87;9.90;;;;;;;22.29;100.00;98333.50;4174270;28;21522;-83
2023/08/17 07:07:35;;;;;;;12.83;9.50;;;;;;;22.31;100.00;98333.34;4170696;28;20730;-83
2023/08/17 07:09:39;;;;;;;11.70;8.77;;;;;;;22.31;100.00;98334.19;4173219;28;20666;-83
2023/08/17 07:11:42;;;;;;;13.07;9.30;;;;;;;22.33;100.00;98334.03;4174755;28;20747;-81
2023/08/17 07:13:46;;;;;;;14.00;9.53;;;;;;;22.35;100.00;98338.16;4172732;28;21018;-82
2023/08/17 07:15:48;;;;;;;12.27;9.87;;;;;;;22.36;100.00;98339.81;4167362;28;20720;-82
2023/08/17 07:17:51;;;;;;;15.03;10.23;;;;;;;22.37;100.00;98338.81;4170799;28;21042;-83
2023/08/17 07:19:55;;;;;;;13.00;9.83;;;;;;;22.38;100.00;98340.47;4170540;28;20672;-81
2023/08/17 07:22:18;;;;;;;14.17;10.53;;;;;;;22.37;100.00;98338.81;4170094;28;21039;-83
2023/08/17 07:24:21;;;;;;;12.93;9.23;;;;;;;22.40;100.00;98342.94;4173344;28;20734;-82
2023/08/17 07:26:25;;;;;;;14.10;10.30;;;;;;;22.41;100.00;98349.94;4174669;28;20636;-83
2023/08/17 07:28:28;;;;;;;13.20;10.20;;;;;;;22.39;100.00;98344.78;4171861;28;20640;-83
2023/08/17 07:30:31;;;;;;;13.60;9.47;;;;;;;22.43;100.00;98337.28;4172014;28;20640;-83
2023/08/17 07:32:35;;;;;;;13.30;10.23;;;;;;;22.44;100.00;98346.94;4175566;28;20646;-83
2023/08/17 07:34:38;;;;;;;14.10;10.80;;;;;;;22.46;100.00;98340.47;4177857;28;20745;-82
2023/08/17 07:36:41;;;;;;;12.00;9.70;;;;;;;22.46;100.00;98332.47;4169157;28;20671;-81
2023/08/17 07:38:45;;;;;;;12.20;9.93;;;;;;;22.48;100.00;98335.78;4169973;28;20654;-81
2023/08/17 07:40:48;;;;;;;15.10;11.20;;;;;;;22.49;100.00;98340.13;4172533;28;21324;-83
2023/08/17 07:42:52;;;;;;;13.20;10.30;;;;;;;22.55;100.00;98342.09;4171827;28;20634;-82
2023/08/17 07:44:55;;;;;;;14.00;10.90;;;;;;;22.61;100.00;98338.69;4173790;28;20632;-83
2023/08/17 07:46:58;;;;;;;13.30;10.07;;;;;;;22.66;100.00;98336.38;4171181;28;20641;-82
2023/08/17 07:49:02;;;;;;;16.70;11.33;;;;;;;22.70;100.00;98336.84;4162406;28;20726;-82
2023/08/17 07:51:05;;;;;;;12.90;10.10;;;;;;;22.73;100.00;98332.00;4169776;28;20670;-82
2023/08/17 07:53:08;;;;;;;14.03;10.50;;;;;;;22.75;100.00;98338.00;4169667;28;20637;-82
2023/08/17 07:55:11;;;;;;;12.97;9.90;;;;;;;22.71;100.00;98334.84;4156798;28;20996;-82
2023/08/17 07:57:14;;;;;;;13.10;10.27;;;;;;;22.71;100.00;98333.19;4149076;28;20632;-83
2023/08/17 07:59:19;;;;;;;14.20;10.00;;;;;;;22.76;100.00;98340.47;4171342;28;20662;-82
2023/08/17 08:01:22;;;;;;;17.27;12.80;;;;;;;22.84;100.00;98334.28;4177241;28;20651;-81
2023/08/17 08:03:25;;;;;;;13.73;10.20;;;;;;;22.88;100.00;98339.09;4168000;28;20654;-83
2023/08/17 08:05:28;;;;;;;13.43;10.30;;;;;;;22.91;100.00;98341.41;4169698;28;21232;-82
2023/08/17 08:07:32;;;;;;;14.53;10.67;;;;;;;22.94;100.00;98332.25;4172005;28;20624;-83
2023/08/17 08:09:35;;;;;;;13.13;10.70;;;;;;;22.94;100.00;98329.59;4171290;28;20625;-83
2023/08/17 08:11:38;;;;;;;16.10;11.57;;;;;;;22.98;100.00;98333.56;4169351;28;21165;-82
2023/08/17 08:13:41;;;;;;;13.23;10.23;;;;;;;23.05;100.00;98332.69;4172384;28;20729;-82
2023/08/17 08:15:46;;;;;;;13.60;10.23;;;;;;;23.22;100.00;98334.25;4168250;28;20622;-84
2023/08/17 08:17:49;;;;;;;14.00;10.40;;;;;;;23.42;100.00;98332.75;4168847;28;20654;-81
2023/08/17 08:19:54;;;;;;;13.00;10.17;;;;;;;23.63;100.00;98333.72;4154852;28;20659;-83
2023/08/17 08:21:57;;;;;;;12.77;10.20;;;;;;;23.77;100.00;98341.00;4169393;28;20619;-82
2023/08/17 08:24:00;;;;;;;16.40;11.20;;;;;;;23.80;100.00;98343.28;4170818;28;20623;-83
2023/08/17 08:26:03;;;;;;;13.97;10.60;;;;;;;23.75;100.00;98335.84;4169574;28;20627;-83
2023/08/17 08:28:06;;;;;;;15.53;10.87;;;;;;;23.71;100.00;98331.06;4171247;28;20636;-83
2023/08/17 08:30:10;;;;;;;12.13;9.90;;;;;;;23.75;100.00;98338.50;4166923;28;20642;-79
2023/08/17 08:32:14;;;;;;;14.30;9.87;;;;;;;23.83;100.00;98337.59;4164805;28;20620;-81
2023/08/17 08:34:17;;;;;;;14.63;11.53;;;;;;;23.87;99.10;98330.88;4169288;28;20696;-82
2023/08/17 08:36:21;;;;;;;12.17;10.23;;;;;;;23.94;99.63;98335.31;4150810;28;20680;-83
2023/08/17 08:38:25;;;;;;;15.10;11.77;;;;;;;24.16;99.50;98329.09;4169140;28;20662;-82
2023/08/17 08:40:30;;;;;;;12.97;11.03;;;;;;;24.54;98.10;98333.38;4169501;28;20672;-83
2023/08/17 08:42:33;;;;;;;13.50;10.53;;;;;;;24.89;97.12;98333.38;4150706;28;20631;-83
2023/08/17 08:44:36;;;;;;;13.33;10.67;;;;;;;25.13;95.68;98333.09;4168306;28;21073;-83
2023/08/17 08:46:41;;;;;;;15.33;11.03;;;;;;;25.35;95.87;98341.75;4163049;28;20643;-83
2023/08/17 08:48:46;;;;;;;10.90;9.80;;;;;;;25.51;93.55;98327.31;4169182;28;21216;-83
2023/08/17 08:50:52;;;;;;;12.43;9.23;;;;;;;25.66;94.83;98332.44;4177706;28;20714;-83
2023/08/17 08:53:00;;;;;;;11.37;9.80;;;;;;;25.85;93.60;98331.75;4168648;28;20648;-74
2023/08/17 08:55:11;;;;;;;10.37;8.23;;;;;;;26.03;93.06;98325.94;4168800;28;20629;-74
2023/08/17 08:57:14;;;;;;;11.00;9.00;;;;;;;26.28;95.96;98319.94;4161451;28;21173;-75
2023/08/17 08:59:17;;;;;;;11.30;9.80;;;;;;;26.49;96.13;98319.84;4163104;28;20689;-74
2023/08/17 09:01:21;;;;;;;11.90;9.47;;;;;;;26.67;92.13;98315.63;4171258;28;21270;-74
2023/08/17 09:03:26;;;;;;;11.03;9.00;;;;;;;26.77;93.49;98318.75;4168189;28;21235;-74
2023/08/17 09:05:35;;;;;;;11.80;9.60;;;;;;;26.75;88.57;98315.47;4172248;28;20747;-74
2023/08/17 09:07:37;;;;;;;12.17;9.80;;;;;;;26.81;91.26;98315.47;4172497;28;20632;-74
2023/08/17 09:09:40;;;;;;;11.97;9.60;;;;;;;26.90;91.07;98313.47;4174160;28;21325;-75
2023/08/17 09:11:44;;;;;;;11.73;8.30;;;;;;;27.04;90.10;98319.50;4170247;28;20617;-75
2023/08/17 09:13:47;;;;;;;12.30;9.93;;;;;;;27.09;88.18;98321.56;4172743;28;20633;-74
2023/08/17 09:15:59;;;;;;;11.13;9.90;;;;;;;27.08;87.88;98323.44;4167994;28;21200;-76
2023/08/17 09:18:05;;;;;;;9.03;7.97;;;;;;;27.16;88.61;98322.44;4167684;28;20669;-76
2023/08/17 09:20:10;;;;;;;14.20;9.20;;;;;;;27.30;89.95;98332.97;4171420;28;20670;-74
2023/08/17 09:22:14;;;;;;;11.47;9.20;;;;;;;27.29;87.17;98323.28;4173305;28;20665;-75
2023/08/17 09:24:17;;;;;;;13.00;9.13;;;;;;;27.28;87.91;98318.13;4170498;28;21358;-76
2023/08/17 09:26:21;;;;;;;11.53;10.33;;;;;;;27.37;88.38;98316.91;4172907;28;20666;-74
2023/08/17 09:28:25;;;;;;;11.57;9.33;;;;;;;27.44;85.99;98312.38;4152930;28;20638;-75
2023/08/17 09:30:28;;;;;;;8.77;7.30;;;;;;;27.46;87.15;98305.78;4153452;28;20635;-74